• Join FlightAware (Why Join?)
  • Login
  • US Flag 
01:28AM EDT


 

Airport Tracker/Info


-or-


 

Live Flight TrackerFlight Track Log ✈ SWA534 ✈ 02-Feb-2014 ✈ KOAK - KSEA

Flight Track Log - Related Links

Times and Time Zones

All times are in EST time to prevent confusion due to time zone crossing. See the SWA534 flight status page for this flight to view local times or setup timezone preferences in your user account.

Time Position Orientation Groundspeed Altitude Reporting Facility
EST Latitude Longitude Course Direction KTS MPH feet Rate Location/Type
08:10PM 37.6500 -122.1333 130° Southeast 226 260 4,100  Level Northern Cal TRACON
08:12PM 37.6739 -122.0225 75° East 275 316 10,700 3,420 Climbing Oakland Center
08:13PM 37.7636 -122.0286 357° North 311 358 13,500 2,100 Climbing Oakland Center
08:14PM 37.8619 -122.0369 356° North 350 403 15,000 1,860 Climbing Oakland Center
08:15PM 37.9600 -122.0469 355° North 357 411 17,400 2,760 Climbing Oakland Center
08:16PM 38.0603 -122.0561 356° North 362 417 20,700 3,060 Climbing Oakland Center
08:17PM 38.1628 -122.0642 356° North 370 426 23,700 2,580 Climbing Oakland Center
08:18PM 38.2711 -122.0750 356° North 385 443 26,000 2,220 Climbing Oakland Center
08:19PM 38.3836 -122.0847 356° North 400 460 28,300 1,980 Climbing Oakland Center
08:20PM 38.4992 -122.0942 356° North 417 480 30,100 1,860 Climbing Oakland Center
08:21PM 38.6414 -122.1053 357° North 429 494 32,200 1,860 Climbing Oakland Center
08:22PM 38.7553 -122.1142 357° North 434 499 33,900 1,500 Climbing Oakland Center
08:23PM 38.8767 -122.1258 356° North 437 503 35,300 1,380 Climbing Oakland Center
08:24PM 38.9994 -122.1325 358° North 441 507 36,700 1,320 Climbing Oakland Center
08:25PM 39.1222 -122.1397 357° North 440 506 38,000 1,080 Climbing Oakland Center
08:26PM 39.2433 -122.1486 357° North 438 504 39,000 960 Climbing Oakland Center
08:27PM 39.3656 -122.1556 357° North 440 506 40,000 480 Climbing Oakland Center
08:28PM 39.5044 -122.1653 357° North 439 505 40,000  Level Oakland Center
08:29PM 39.6261 -122.1725 357° North 438 504 40,000  Level Oakland Center
08:30PM 39.7472 -122.1797 357° North 438 504 40,000  Level Oakland Center
08:31PM 39.8683 -122.1864 358° North 438 504 40,000  Level Oakland Center
08:32PM 39.9892 -122.1939 357° North 437 503 40,000  Level Oakland Center
08:33PM 40.1064 -122.2019 357° North 433 498 40,000  Level Oakland Center
08:34PM 40.2206 -122.2100 357° North 429 494 40,000  Level Oakland Center
08:35PM 40.3619 -122.2172 358° North 429 494 40,000  Level Oakland Center
08:36PM 40.4808 -122.2250 357° North 429 494 40,000  Level Oakland Center
08:37PM 40.6022 -122.2325 357° North 436 502 40,000  Level Oakland Center
08:39PM 40.7964 -122.2475 357° North 435 501 40,000  Level Seattle Center
08:40PM 40.9181 -122.2561 357° North 437 503 40,000  Level Seattle Center
08:41PM 41.0386 -122.2636 357° North 435 501 40,000  Level Seattle Center
08:42PM 41.1586 -122.2717 357° North 433 498 40,000  Level Seattle Center
08:43PM 41.2794 -122.2808 357° North 434 499 40,000  Level Seattle Center
08:44PM 41.3994 -122.2881 357° North 433 498 40,000  Level Seattle Center
08:45PM 41.5256 -122.2950 358° North 428 493 40,000  Level Seattle Center
08:46PM 41.6433 -122.3028 357° North 424 488 40,000  Level Seattle Center
08:47PM 41.7611 -122.3086 358° North 423 487 40,000  Level Seattle Center
08:48PM 41.8786 -122.3164 357° North 422 486 40,000  Level Seattle Center
08:49PM 41.9978 -122.3231 358° North 435 501 40,000  Level Seattle Center
08:50PM 42.1161 -122.3308 357° North 429 494 40,000  Level Seattle Center
08:51PM 42.2342 -122.3378 358° North 442 509 40,000  Level Seattle Center
08:52PM 42.3536 -122.3469 357° North 427 491 40,000  Level Seattle Center
08:53PM 42.4714 -122.3542 357° North 423 487 40,000  Level Seattle Center
08:54PM 42.5894 -122.3622 357° North 423 487 40,000  Level Seattle Center
08:55PM 42.7067 -122.3714 357° North 421 484 40,000  Level Seattle Center
08:56PM 42.8219 -122.3794 357° North 430 495 40,000  Level Seattle Center
08:57PM 42.9394 -122.3881 357° North 426 490 40,000  Level Seattle Center
08:58PM 43.0569 -122.3967 357° North 428 493 40,000  Level Seattle Center
08:59PM 43.1731 -122.4044 357° North 425 489 40,000  Level Seattle Center
09:00PM 43.2911 -122.4122 357° North 428 493 40,000  Level Seattle Center
09:01PM 43.4094 -122.4200 357° North 429 494 40,000  Level Seattle Center
09:02PM 43.5261 -122.4294 357° North 427 491 40,000  Level Seattle Center
09:03PM 43.6433 -122.4364 358° North 426 490 40,000  Level Seattle Center
09:04PM 43.7831 -122.4483 356° North 421 484 40,000  Level Seattle Center
09:05PM 43.9017 -122.4547 358° North 427 491 40,000  Level Seattle Center
09:06PM 44.0169 -122.4636 357° North 420 483 40,000  Level Seattle Center
09:07PM 44.1319 -122.4717 357° North 417 480 40,000  Level Seattle Center
09:08PM 44.2450 -122.4808 357° North 412 474 40,000  Level Seattle Center
09:09PM 44.3600 -122.4889 357° North 413 475 40,000  Level Seattle Center
09:10PM 44.4756 -122.4978 357° North 417 480 40,000  Level Seattle Center
09:11PM 44.5914 -122.5061 357° North 419 482 40,000  Level Seattle Center
09:12PM 44.7067 -122.5142 357° North 417 480 40,000  Level Seattle Center
09:13PM 44.8236 -122.5228 357° North 420 483 40,000  Level Seattle Center
09:14PM 44.9297 -122.5311 357° North 418 481 40,000  Level Seattle Center
09:15PM 45.0686 -122.5422 357° North 420 483 40,000  Level Seattle Center
09:16PM 45.1853 -122.5483 358° North 422 486 40,000  Level Seattle Center
09:17PM 45.3000 -122.5578 357° North 418 481 40,000  Level Seattle Center
09:18PM 45.4153 -122.5658 357° North 418 481 40,000  Level Seattle Center
09:19PM 45.5303 -122.5747 357° North 415 478 40,000 -840 Level Seattle Center
09:20PM 45.6436 -122.5828 357° North 410 472 38,400 -2,100 Descending Seattle Center
09:21PM 45.7572 -122.5928 356° North 411 473 35,800 -2,880 Descending Seattle Center
09:22PM 45.8694 -122.6203 350° North 411 473 32,600 -2,880 Descending Seattle Center
09:23PM 45.9806 -122.6483 350° North 409 471 30,100 -2,340 Descending Seattle Center
09:24PM 46.0875 -122.6547 358° North 391 450 28,000 -2,460 Descending Seattle Center
09:25PM 46.2028 -122.6408 North 372 428 25,200 -2,580 Descending Seattle Center
09:26PM 46.3019 -122.6303 North 360 414 22,900 -2,220 Descending Seattle Center
09:27PM 46.3983 -122.6219 North 349 402 20,800 -2,040 Descending Seattle Center
09:28PM 46.4897 -122.6136 North 336 387 18,800 -2,160 Descending Seattle Center
09:29PM 46.5408 -122.6111 North 335 386 17,600 -2,100 Descending Seattle Center
09:29PM 46.5861 -122.6044 North 346 398 16,700 -2,100 Descending Seattle Center
09:30PM 46.6183 -122.6019 North 339 390 15,900 -2,100 Descending Seattle Center
09:30PM 46.6775 -122.5953 North 329 379 14,600 -2,100 Descending Seattle Center
09:31PM 46.7447 -122.5919 North 325 374 13,000 -2,220 Descending Seattle Center
09:31PM 46.7711 -122.5864 North 323 372 12,400 -2,040 Descending Seattle Center
09:31PM 46.7919 -122.5861 North 318 366 12,000 -1,800 Descending Seattle Center
09:32PM 46.8578 -122.5781 North 312 359 10,600 -1,320 Descending Seattle Center
09:33PM 46.9083 -122.5717 North 300 345 10,200 -600 Descending Seattle Center
09:33PM 46.9331 -122.5444 37° Northeast 287 330 10,000 -840 Descending Seattle Center
09:34PM 46.9644 -122.4958 47° Northeast 270 311 9,400 -1,020 Descending Seattle Center
09:34PM 46.9844 -122.4672 44° Northeast 265 305 9,000 -1,260 Descending Seattle Center
09:35PM 47.0275 -122.4292 31° Northeast 232 267 8,000 -1,320 Descending Seattle Center
09:35PM 47.0414 -122.4194 26° Northeast 236 272 7,700 -1,380 Descending Seattle Center
09:36PM 47.0592 -122.4056 28° Northeast 228 262 7,200 -1,380 Descending Seattle Center
09:36PM 47.1011 -122.3719 29° Northeast 229 264 6,300 -1,200 Descending Seattle Center
09:37PM 47.1189 -122.3600 25° Northeast 225 259 6,000 -840 Descending Seattle Center
09:37PM 47.1553 -122.3325 27° Northeast 217 250 5,500 -720 Descending Seattle Center
09:38PM 47.1714 -122.3214 25° Northeast 211 243 5,300 -720 Descending Seattle Center
09:38PM 47.2056 -122.3125 10° North 188 216 4,800 -840 Descending Seattle Center
09:39PM 47.2206 -122.3139 356° North 175 201 4,500 -720 Descending Seattle Center
09:39PM 47.2544 -122.3128 North 174 200 4,100 -840 Descending Seattle Center
09:40PM 47.3031 -122.3122 360° North 175 201 3,100 -1,020 Descending Seattle Center
09:41PM 47.3311 -122.3119 360° North 171 197 2,500 -1,020 Descending Seattle Center
09:41PM 47.3494 -122.3119 360° North 167 192 2,100 -900 Descending Seattle Center
09:42PM 47.3714 -122.3128 359° North 151 174 1,700 -720 Descending Seattle Center
09:42PM 47.3872 -122.3117 North 135 155 1,400 -720 Descending Seattle Center
09:43PM 47.4042 -122.3111 North 114 131 1,000 -720 Descending Seattle Center
09:43PM 47.4194 -122.3119 358° North 118 136 700 -600 Descending Seattle Center
09:44PM 47.4378 -122.3122 359° North 116 133 400 -420 Descending Seattle Center
09:44PM 47.4500 -122.3125 359° North 121 139 300 -240 Descending Seattle Center
09:46PM 47.4499 -122.3118 132° Southeast  Level Estimated